createdAt,value
2022-11-12T00:04:32.435Z,99571.5
2022-11-12T00:10:07.331Z,99563.4
2022-11-12T00:21:36.960Z,99557.4
2022-11-12T00:27:12.907Z,99557.3
2022-11-12T00:32:48.540Z,99551.9
2022-11-12T00:38:25.340Z,99549.8
2022-11-12T00:44:03.108Z,99535.4
2022-11-12T00:49:38.679Z,99536.6
2022-11-12T00:55:14.076Z,99525.3
2022-11-12T01:00:49.144Z,99508.9
2022-11-12T01:06:25.763Z,99507
2022-11-12T01:12:01.401Z,99511.5
2022-11-12T01:17:36.138Z,99485
2022-11-12T01:23:11.538Z,99480.2
2022-11-12T01:28:47.195Z,99481.4
2022-11-12T01:34:23.402Z,99468.1
2022-11-12T01:39:58.907Z,99470.1
2022-11-12T01:45:34.215Z,99452.1
2022-11-12T01:51:09.982Z,99452.8
2022-11-12T01:56:46.372Z,99457.2
2022-11-12T02:02:21.840Z,99443.3
2022-11-12T02:07:56.973Z,99447.7
2022-11-12T02:13:34.396Z,99438.6
2022-11-12T02:19:10.400Z,99441.9
2022-11-12T02:24:46.457Z,99436.7
2022-11-12T02:30:22.069Z,99430.5
2022-11-12T02:35:58.034Z,99429.9
2022-11-12T02:41:33.019Z,99426.1
2022-11-12T02:47:31.006Z,99416.7
2022-11-12T02:53:05.625Z,99406
2022-11-12T02:58:41.798Z,99390.3
2022-11-12T03:04:17.744Z,99385.8
2022-11-12T03:09:53.568Z,99388.9
2022-11-12T03:15:28.359Z,99385.9
2022-11-12T03:21:03.729Z,99399.5
2022-11-12T03:26:39.049Z,99397.3
2022-11-12T03:32:14.818Z,99389.3
2022-11-12T03:37:57.999Z,99394.4
2022-11-12T03:43:34.076Z,99394
2022-11-12T03:49:30.917Z,99396.6
2022-11-12T03:55:04.013Z,99389.6
2022-11-12T04:00:39.703Z,99382.5
2022-11-12T04:06:14.727Z,99385.2
2022-11-12T04:11:50.314Z,99381.2
2022-11-12T04:17:27.341Z,99376.1
2022-11-12T04:23:06.110Z,99359.4
2022-11-12T04:28:41.618Z,99364.1
2022-11-12T04:34:17.120Z,99368.6
2022-11-12T04:39:52.498Z,99360.6
2022-11-12T04:45:28.189Z,99349.5
2022-11-12T04:51:04.141Z,99339.3
2022-11-12T04:56:38.818Z,99328.7
2022-11-12T05:02:14.830Z,99334.8
2022-11-12T05:07:51.473Z,99337.8
2022-11-12T05:13:26.598Z,99326.7
2022-11-12T05:19:02.073Z,99318.3
2022-11-12T05:24:43.393Z,99329.7
2022-11-12T05:30:18.220Z,99326.3
2022-11-12T05:35:54.608Z,99319.8
2022-11-12T05:42:14.013Z,99323.8
2022-11-12T05:48:11.710Z,99316.3
2022-11-12T05:53:45.942Z,99327.4
2022-11-12T05:59:22.402Z,99316.9
2022-11-12T06:04:58.326Z,99321.2
2022-11-12T06:10:36.631Z,99310.8
2022-11-12T06:16:12.133Z,99323.2
2022-11-12T06:21:47.796Z,99345.9
2022-11-12T06:27:24.878Z,99340.8
2022-11-12T06:33:00.690Z,99349.7
2022-11-12T06:38:37.442Z,99356.4
2022-11-12T06:44:22.563Z,99361.8
2022-11-12T06:49:58.155Z,99370.3
2022-11-12T06:55:32.998Z,99378.7
2022-11-12T07:01:13.132Z,99384.6
2022-11-12T07:06:50.467Z,99392.5
2022-11-12T07:12:25.911Z,99404.7
2022-11-12T07:18:02.711Z,99409.1
2022-11-12T07:23:38.402Z,99419
2022-11-12T07:29:48.779Z,99412.7
2022-11-12T07:35:24.500Z,99420.5
2022-11-12T07:41:00.070Z,99428.9
2022-11-12T07:46:34.893Z,99439.6
2022-11-12T07:52:10.412Z,99438.6
2022-11-12T07:57:46.168Z,99441.6
2022-11-12T08:03:21.526Z,99445.2
2022-11-12T08:08:56.764Z,99443.7
2022-11-12T08:14:32.258Z,99449.5
2022-11-12T08:20:12.097Z,99454
2022-11-12T08:25:47.642Z,99464.1
2022-11-12T08:31:25.675Z,99470.5
2022-11-12T08:37:03.623Z,99478.8
2022-11-12T08:42:39.396Z,99478.1
2022-11-12T08:48:48.904Z,99459.8
2022-11-12T08:54:21.616Z,99451
2022-11-12T09:00:00.802Z,99459.9
2022-11-12T09:05:38.069Z,99456.8
2022-11-12T09:11:14.739Z,99448.1
2022-11-12T09:16:50.032Z,99451.9
2022-11-12T09:22:26.618Z,99451.7
2022-11-12T09:28:01.428Z,99460.1
2022-11-12T09:33:37.817Z,99450.8
2022-11-12T09:39:13.329Z,99455.4
2022-11-12T09:44:47.937Z,99458.9
2022-11-12T09:50:23.913Z,99450.1
2022-11-12T09:56:00.343Z,99459.8
2022-11-12T10:01:35.741Z,99460.3
2022-11-12T10:07:23.298Z,99455.5
2022-11-12T10:12:58.724Z,99459.4
2022-11-12T10:18:33.413Z,99464.5
2022-11-12T10:24:10.203Z,99455.7
2022-11-12T10:29:45.448Z,99455
2022-11-12T10:35:20.097Z,99457
2022-11-12T10:40:56.638Z,99450.5
2022-11-12T10:46:53.762Z,99438.9
2022-11-12T10:52:26.450Z,99427
2022-11-12T10:58:01.944Z,99424.6
2022-11-12T11:03:37.395Z,99423.7
2022-11-12T11:09:12.180Z,99414.6
2022-11-12T11:14:47.987Z,99407.4
2022-11-12T11:20:24.417Z,99422
2022-11-12T11:26:07.506Z,99409.1
2022-11-12T11:31:43.289Z,99405.8
2022-11-12T11:37:19.111Z,99407.3
2022-11-12T11:42:54.913Z,99403.6
2022-11-12T11:48:52.302Z,99396.2
2022-11-12T11:54:25.691Z,99383.7
2022-11-12T12:00:00.759Z,99379.1
2022-11-12T12:05:36.780Z,99380.8
2022-11-12T12:11:12.087Z,99378
2022-11-12T12:16:49.287Z,99380.6
2022-11-12T12:22:25.096Z,99368.3
2022-11-12T12:28:01.170Z,99364.7
2022-11-12T12:33:36.110Z,99370.4
2022-11-12T12:39:12.380Z,99359.6
2022-11-12T12:44:48.281Z,99355.6
2022-11-12T12:50:23.343Z,99350.1
2022-11-12T12:55:59.175Z,99342.1
2022-11-12T13:01:34.703Z,99336.2
2022-11-12T13:07:11.853Z,99337.8
2022-11-12T13:12:47.945Z,99321.1
2022-11-12T13:18:23.542Z,99322
2022-11-12T13:23:59.275Z,99317.6
2022-11-12T13:29:35.675Z,99317.5
2022-11-12T13:35:10.873Z,99311.6
2022-11-12T13:40:46.000Z,99305
2022-11-12T13:46:43.799Z,99300.3
2022-11-12T13:52:17.760Z,99294.5
2022-11-12T13:57:53.629Z,99300.8
2022-11-12T14:03:29.335Z,99289.4
2022-11-12T14:09:05.079Z,99285.2
2022-11-12T14:14:39.949Z,99291.2
2022-11-12T14:20:16.400Z,99292.9
2022-11-12T14:25:53.029Z,99301.3
2022-11-12T14:31:28.485Z,99305.2
2022-11-12T14:37:03.940Z,99302.1
2022-11-12T14:42:39.420Z,99301.8
2022-11-12T14:48:35.747Z,99307.5
2022-11-12T14:54:09.426Z,99302.9
2022-11-12T14:59:44.578Z,99298.6
2022-11-12T15:05:21.768Z,99301.4
2022-11-12T15:10:56.952Z,99284.1
2022-11-12T15:16:32.506Z,99283.3
2022-11-12T15:22:07.211Z,99272.7
2022-11-12T15:27:42.466Z,99258.4
2022-11-12T15:33:18.000Z,99247
2022-11-12T15:38:53.304Z,99232.8
2022-11-12T15:44:29.537Z,99228.5
2022-11-12T15:50:04.998Z,99236.4
2022-11-12T15:55:39.513Z,99231
2022-11-12T16:01:15.866Z,99233.8
2022-11-12T16:06:52.361Z,99231
2022-11-12T16:12:28.004Z,99221.4
2022-11-12T16:18:03.657Z,99200.4
2022-11-12T16:23:39.653Z,99201.5
2022-11-12T16:29:14.560Z,99192
2022-11-12T16:34:49.925Z,99183.1
2022-11-12T16:40:25.443Z,99170.5
2022-11-12T16:46:00.363Z,99168
2022-11-12T16:51:36.953Z,99165.2
2022-11-12T16:57:12.456Z,99169.6
2022-11-12T17:02:54.263Z,99169
2022-11-12T17:08:34.528Z,99170.3
2022-11-12T17:14:11.726Z,99183.2
2022-11-12T17:19:46.812Z,99186.2
2022-11-12T17:25:22.598Z,99198.5
2022-11-12T17:30:58.183Z,99202.2
2022-11-12T17:36:33.339Z,99196.1
2022-11-12T17:42:20.867Z,99191.5
2022-11-12T17:48:01.927Z,99188.6
2022-11-12T17:53:37.235Z,99189.2
2022-11-12T17:59:16.028Z,99181
2022-11-12T18:04:51.262Z,99171.6
2022-11-12T18:10:26.093Z,99145.1
2022-11-12T18:16:01.480Z,99154
2022-11-12T18:21:37.041Z,99153.3
2022-11-12T18:27:12.184Z,99145.3
2022-11-12T18:32:48.379Z,99168.1
2022-11-12T18:38:24.059Z,99140.9
2022-11-12T18:43:58.837Z,99140.7
2022-11-12T18:49:34.184Z,99130.9
2022-11-12T18:55:09.849Z,99136
2022-11-12T19:00:45.217Z,99138.6
2022-11-12T19:06:21.356Z,99142.7
2022-11-12T19:11:58.405Z,99131.1
2022-11-12T19:17:33.446Z,99149.1
2022-11-12T19:23:09.014Z,99150.1
2022-11-12T19:28:45.733Z,99145.7
2022-11-12T19:34:21.162Z,99158.9
2022-11-12T19:39:56.869Z,99144.3
2022-11-12T19:45:33.367Z,99138.1
2022-11-12T19:51:09.404Z,99147.2
2022-11-12T19:56:44.874Z,99138.8
2022-11-12T20:02:20.385Z,99121.7
2022-11-12T20:07:55.523Z,99129.1
2022-11-12T20:13:31.018Z,99134.6
2022-11-12T20:19:06.475Z,99148
2022-11-12T20:24:41.339Z,99136.5
2022-11-12T20:30:16.843Z,99130.7
2022-11-12T20:35:52.262Z,99143
2022-11-12T20:41:27.023Z,99138.6
2022-11-12T20:47:24.382Z,99137.6
2022-11-12T20:52:57.404Z,99146.2
2022-11-12T20:58:32.757Z,99150.5
2022-11-12T21:04:08.179Z,99145
2022-11-12T21:09:43.263Z,99134.3
2022-11-12T21:15:18.247Z,99139.4
2022-11-12T21:20:53.855Z,99138.6
2022-11-12T21:26:29.605Z,99128.1
2022-11-12T21:32:04.508Z,99135.3
2022-11-12T21:37:40.564Z,99134.5
2022-11-12T21:43:15.999Z,99130.6
2022-11-12T21:49:12.570Z,99131.8
2022-11-12T21:54:46.012Z,99134.6
2022-11-12T22:00:43.383Z,99132.6
2022-11-12T22:06:18.794Z,99122.7
2022-11-12T22:11:55.595Z,99116.9
2022-11-12T22:17:31.921Z,99113.4
2022-11-12T22:23:07.007Z,99110.6
2022-11-12T22:28:42.345Z,99111.4
2022-11-12T22:34:18.627Z,99114
2022-11-12T22:39:53.421Z,99108.2
2022-11-12T22:45:28.802Z,99093.7
2022-11-12T22:51:04.824Z,99090.4
2022-11-12T22:56:40.590Z,99090.4
2022-11-12T23:02:16.020Z,99078.6
2022-11-12T23:07:51.745Z,99078.8
2022-11-12T23:13:26.461Z,99074
2022-11-12T23:19:01.796Z,99075.6
2022-11-12T23:24:37.842Z,99073.2
2022-11-12T23:30:12.851Z,99069.7
2022-11-12T23:35:48.294Z,99053.7
2022-11-12T23:41:23.938Z,99050
2022-11-12T23:47:20.763Z,99041.3
2022-11-12T23:52:55.042Z,99054.7
2022-11-12T23:58:32.258Z,99052.4
